weather.gov     
National Weather Service

Terminal Aerodrome Forecast
NWS Homepage
This page is being discontinued on March 12, 2014.
The same data is available at this site. Please update your bookmarks.
Thank you, and we apologize for the inconvenience.
Please send an email to SR-SRH.Webmaster@noaa.gov with any concerns.


Current Version
Previous Version:    01  02  03  04  05  06  07  08  09  10  11  12  13  14  15  16  17  18  19  20  21  22  23  24  25  26  27  28  29  30  
   31  32  33  
[Printable]
149
FTUS42 TJSJ 181100 RRA
TAFNCM
TAF
TNCM 181139Z 1812/1912 09014KT P6SM VCSH SCT019 SCT030
      TEMPO 1812/1814 VRB13G24KT 5SM -SHRA BKN018
     FM181430 11016KT P6SM SCT020 SCT050
     FM182230 09010KT P6SM FEW018 SCT050=


U.S. Dept. of Commerce
NOAA National Weather Service
1325 East West Highway
Silver Spring, MD 20910
E-mail: w-nws.webmaster@noaa.gov
Page last modified: May 16, 2007
NATIONAL WEATHER SERVICE: for Safety, for Work, for Fun - FOR LIFE